createdAt,value
2022-12-16T00:00:00.017Z,99813.56
2022-12-16T00:05:01.167Z,99821.41
2022-12-16T00:10:02.378Z,99821.56
2022-12-16T00:15:03.526Z,99824.19
2022-12-16T00:20:05.254Z,99827.69
2022-12-16T00:25:06.971Z,99825.34
2022-12-16T00:30:08.179Z,99819.31
2022-12-16T00:35:09.804Z,99822.66
2022-12-16T00:40:10.955Z,99808.72
2022-12-16T00:45:12.118Z,99812.03
2022-12-16T00:50:13.272Z,99811.84
2022-12-16T00:55:14.494Z,99808.84
2022-12-16T01:00:15.696Z,99810.44
2022-12-16T01:05:18.040Z,99813.94
2022-12-16T01:10:19.683Z,99808.59
2022-12-16T01:15:21.001Z,99818.56
2022-12-16T01:20:22.214Z,99821.53
2022-12-16T01:25:23.467Z,99827.00
2022-12-16T01:30:24.701Z,99830.13
2022-12-16T01:35:52.199Z,99827.94
2022-12-16T01:40:47.055Z,99827.56
2022-12-16T01:45:48.248Z,99834.22
2022-12-16T01:50:49.791Z,99837.72
2022-12-16T01:55:51.055Z,99852.56
2022-12-16T02:00:52.244Z,99844.25
2022-12-16T02:05:55.862Z,99846.59
2022-12-16T02:16:17.349Z,99848.47
2022-12-16T02:21:18.826Z,99855.56
2022-12-16T02:26:20.328Z,99852.22
2022-12-16T02:31:22.403Z,99858.09
2022-12-16T02:36:23.768Z,99858.44
2022-12-16T02:41:24.933Z,99866.44
2022-12-16T02:46:26.197Z,99865.84
2022-12-16T02:51:27.410Z,99863.31
2022-12-16T02:56:28.624Z,99875.84
2022-12-16T03:06:48.674Z,99867.09
2022-12-16T03:11:49.819Z,99876.97
2022-12-16T03:16:51.186Z,99877.03
2022-12-16T03:21:52.438Z,99878.84
2022-12-16T03:26:53.783Z,99880.97
2022-12-16T03:31:54.917Z,99888.78
2022-12-16T03:36:56.103Z,99887.94
2022-12-16T03:41:57.282Z,99882.22
2022-12-16T03:46:58.512Z,99881.63
2022-12-16T03:57:18.567Z,99894.53
2022-12-16T04:02:19.799Z,99892.16
2022-12-16T04:12:58.536Z,99901.13
2022-12-16T04:18:18.317Z,99898.75
2022-12-16T04:23:38.028Z,99908.56
2022-12-16T04:28:39.284Z,99898.38
2022-12-16T04:33:59.007Z,99902.09
2022-12-16T04:39:18.642Z,99908.13
2022-12-16T04:44:38.454Z,99919.91
2022-12-16T04:49:58.699Z,99914.38
2022-12-16T04:55:18.621Z,99921.50
2022-12-16T05:00:38.319Z,99924.03
2022-12-16T05:05:58.005Z,99933.59
2022-12-16T05:11:17.740Z,99940.00
2022-12-16T05:16:37.472Z,99940.44
2022-12-16T05:21:58.892Z,99948.16
2022-12-16T05:27:32.288Z,99948.50
2022-12-16T05:32:52.259Z,99952.72
2022-12-16T05:38:12.592Z,99950.97
2022-12-16T05:43:32.798Z,99967.03
2022-12-16T05:48:53.338Z,99970.56
2022-12-16T05:54:13.126Z,99974.66
2022-12-16T05:59:32.897Z,99987.22
2022-12-16T06:04:52.897Z,99988.38
2022-12-16T06:10:12.590Z,99994.41
2022-12-16T06:15:32.294Z,100006.53
2022-12-16T06:20:51.877Z,100013.56
2022-12-16T06:26:12.209Z,100027.22
2022-12-16T06:31:31.961Z,100044.59
2022-12-16T06:36:52.183Z,100051.91
2022-12-16T06:42:11.891Z,100053.66
2022-12-16T06:47:31.879Z,100061.97
2022-12-16T06:52:51.534Z,100065.84
2022-12-16T06:58:11.317Z,100073.66
2022-12-16T07:03:35.531Z,100087.94
2022-12-16T07:08:56.129Z,100093.84
2022-12-16T07:14:15.873Z,100112.59
2022-12-16T07:19:35.653Z,100129.34
2022-12-16T07:24:55.310Z,100143.22
2022-12-16T07:30:15.127Z,100146.41
2022-12-16T07:35:34.767Z,100161.31
2022-12-16T07:40:54.721Z,100170.56
2022-12-16T07:46:15.131Z,100175.78
2022-12-16T07:51:35.146Z,100173.69
2022-12-16T07:56:55.030Z,100182.53
2022-12-16T08:02:14.878Z,100178.72
2022-12-16T08:07:34.881Z,100187.25
2022-12-16T08:12:54.904Z,100198.78
2022-12-16T08:18:14.716Z,100194.78
2022-12-16T08:23:34.914Z,100197.91
2022-12-16T08:28:55.201Z,100212.78
2022-12-16T08:34:15.079Z,100207.59
2022-12-16T08:39:34.963Z,100210.53
2022-12-16T08:44:54.721Z,100212.00
2022-12-16T08:50:14.409Z,100208.72
2022-12-16T08:55:34.337Z,100223.53
2022-12-16T09:00:54.055Z,100232.25
2022-12-16T09:06:14.458Z,100236.44
2022-12-16T09:11:34.222Z,100248.75
2022-12-16T09:16:53.959Z,100245.09
2022-12-16T09:22:14.767Z,100243.38
2022-12-16T09:27:34.401Z,100250.66
2022-12-16T09:32:54.262Z,100267.75
2022-12-16T09:38:14.488Z,100265.00
2022-12-16T09:43:34.839Z,100269.53
2022-12-16T09:48:54.933Z,100277.03
2022-12-16T09:54:15.907Z,100277.72
2022-12-16T09:59:35.617Z,100279.94
2022-12-16T10:04:55.560Z,100288.75
2022-12-16T10:10:15.821Z,100286.00
2022-12-16T10:15:35.700Z,100294.25
2022-12-16T10:20:55.806Z,100293.00
2022-12-16T10:26:15.546Z,100292.78
2022-12-16T10:31:35.221Z,100295.03
2022-12-16T10:36:55.526Z,100304.03
2022-12-16T10:42:15.393Z,100302.03
2022-12-16T10:47:42.853Z,100307.56
2022-12-16T10:53:02.774Z,100310.13
2022-12-16T10:58:22.850Z,100312.66
2022-12-16T11:03:42.772Z,100295.00
2022-12-16T11:09:02.822Z,100304.19
2022-12-16T11:14:22.484Z,100299.38
2022-12-16T11:19:42.193Z,100297.25
2022-12-16T11:25:01.918Z,100301.56
2022-12-16T11:30:21.605Z,100303.03
2022-12-16T11:35:41.374Z,100306.91
2022-12-16T11:41:01.182Z,100314.88
2022-12-16T11:46:20.952Z,100308.09
2022-12-16T11:51:40.881Z,100306.16
2022-12-16T11:57:00.658Z,100319.63
2022-12-16T12:02:20.669Z,100322.25
2022-12-16T12:07:44.936Z,100323.22
2022-12-16T12:13:05.401Z,100316.88
2022-12-16T12:18:25.173Z,100320.06
2022-12-16T12:23:44.898Z,100324.47
2022-12-16T12:29:04.725Z,100326.31
2022-12-16T12:34:24.476Z,100328.75
2022-12-16T12:39:44.160Z,100318.53
2022-12-16T12:45:04.035Z,100325.66
2022-12-16T12:50:23.911Z,100334.81
2022-12-16T12:55:43.738Z,100328.72
2022-12-16T13:01:03.479Z,100336.59
2022-12-16T13:06:23.521Z,100338.31
2022-12-16T13:11:43.787Z,100337.97
2022-12-16T13:17:03.664Z,100341.28
2022-12-16T13:22:23.450Z,100337.16
2022-12-16T13:27:43.341Z,100341.63
2022-12-16T13:33:03.185Z,100341.19
2022-12-16T13:38:23.038Z,100352.50
2022-12-16T13:43:42.971Z,100358.72
2022-12-16T13:49:02.827Z,100372.56
2022-12-16T13:54:22.696Z,100382.00
2022-12-16T13:59:42.536Z,100387.50
2022-12-16T14:05:02.653Z,100393.47
2022-12-16T14:10:22.413Z,100394.13
2022-12-16T14:15:52.802Z,100409.25
2022-12-16T14:21:12.613Z,100410.88
2022-12-16T14:26:32.363Z,100418.81
2022-12-16T14:31:53.284Z,100426.06
2022-12-16T14:37:13.246Z,100438.44
2022-12-16T14:42:33.001Z,100436.50
2022-12-16T14:47:52.858Z,100440.19
2022-12-16T14:53:12.606Z,100447.25
2022-12-16T14:58:32.583Z,100451.44
2022-12-16T15:03:52.525Z,100449.84
2022-12-16T15:09:13.389Z,100452.69
2022-12-16T15:14:33.598Z,100477.41
2022-12-16T15:19:53.260Z,100474.47
2022-12-16T15:25:13.088Z,100487.38
2022-12-16T15:30:40.616Z,100504.59
2022-12-16T15:36:00.384Z,100520.63
2022-12-16T15:41:20.210Z,100531.88
2022-12-16T15:46:39.937Z,100536.25
2022-12-16T15:52:00.097Z,100544.72
2022-12-16T15:57:20.050Z,100543.94
2022-12-16T16:02:40.019Z,100552.78
2022-12-16T16:08:03.685Z,100567.84
2022-12-16T16:13:24.551Z,100572.75
2022-12-16T16:18:44.348Z,100586.38
2022-12-16T16:24:04.267Z,100588.56
2022-12-16T16:29:24.131Z,100602.84
2022-12-16T16:34:43.960Z,100603.09
2022-12-16T16:40:03.754Z,100603.50
2022-12-16T16:45:23.613Z,100616.72
2022-12-16T16:50:43.465Z,100621.66
2022-12-16T16:56:03.369Z,100636.69
2022-12-16T17:01:23.338Z,100645.56
2022-12-16T17:06:43.547Z,100647.97
2022-12-16T17:12:03.316Z,100650.53
2022-12-16T17:17:23.083Z,100660.38
2022-12-16T17:22:42.958Z,100672.25
2022-12-16T17:28:02.687Z,100664.78
2022-12-16T17:33:22.605Z,100664.78
2022-12-16T17:38:42.612Z,100670.13
2022-12-16T17:44:02.287Z,100678.63
2022-12-16T17:49:22.021Z,100686.50
2022-12-16T17:54:41.803Z,100699.06
2022-12-16T18:00:01.511Z,100712.88
2022-12-16T18:05:21.324Z,100726.69
2022-12-16T18:10:41.029Z,100726.69
2022-12-16T18:16:00.725Z,100734.22
2022-12-16T18:21:20.588Z,100736.00
2022-12-16T18:26:40.434Z,100743.06
2022-12-16T18:32:00.324Z,100740.84
2022-12-16T18:37:20.551Z,100747.13
2022-12-16T18:42:40.386Z,100753.91
2022-12-16T18:47:59.982Z,100746.81
2022-12-16T18:53:19.921Z,100755.16
2022-12-16T18:58:51.347Z,100766.19
2022-12-16T19:04:11.584Z,100762.81
2022-12-16T19:09:31.294Z,100772.06
2022-12-16T19:14:51.297Z,100780.03
2022-12-16T19:20:10.896Z,100787.66
2022-12-16T19:25:30.835Z,100795.34
2022-12-16T19:30:50.599Z,100797.66
2022-12-16T19:36:10.275Z,100800.44
2022-12-16T19:41:30.130Z,100807.94
2022-12-16T19:46:49.823Z,100821.63
2022-12-16T19:52:09.586Z,100818.03
2022-12-16T19:57:29.403Z,100826.69
2022-12-16T20:02:49.482Z,100829.53
2022-12-16T20:08:09.484Z,100846.47
2022-12-16T20:13:33.779Z,100851.66
2022-12-16T20:18:54.903Z,100850.13
2022-12-16T20:24:15.895Z,100856.00
2022-12-16T20:29:35.827Z,100857.22
2022-12-16T20:34:55.496Z,100860.00
2022-12-16T20:40:16.416Z,100862.03
2022-12-16T20:45:36.129Z,100866.38
2022-12-16T20:50:56.132Z,100870.53
2022-12-16T20:56:16.120Z,100867.72
2022-12-16T21:01:36.085Z,100875.13
2022-12-16T21:06:56.200Z,100881.50
2022-12-16T21:12:27.122Z,100884.94
2022-12-16T21:17:47.007Z,100898.22
2022-12-16T21:23:06.791Z,100898.16
2022-12-16T21:28:26.599Z,100901.50
2022-12-16T21:33:46.940Z,100908.75
2022-12-16T21:39:24.297Z,100930.13
2022-12-16T21:44:44.071Z,100931.75
2022-12-16T21:50:03.835Z,100946.66
2022-12-16T21:55:23.636Z,100953.22
2022-12-16T22:00:43.595Z,100958.38
2022-12-16T22:06:03.360Z,100963.94
2022-12-16T22:11:23.521Z,100972.00
2022-12-16T22:16:43.319Z,100982.53
2022-12-16T22:22:03.172Z,100978.16
2022-12-16T22:27:23.071Z,100983.34
2022-12-16T22:32:42.817Z,100999.38
2022-12-16T22:38:02.699Z,101004.50
2022-12-16T22:43:22.462Z,100993.59
2022-12-16T22:48:42.288Z,100991.81
2022-12-16T22:54:02.089Z,101002.00
2022-12-16T22:59:21.851Z,101001.84
2022-12-16T23:04:41.577Z,100997.06
2022-12-16T23:10:01.895Z,101007.84
2022-12-16T23:15:21.595Z,101010.63
2022-12-16T23:20:41.537Z,101012.38
2022-12-16T23:26:01.247Z,101014.84
2022-12-16T23:31:21.041Z,101022.91
2022-12-16T23:36:40.809Z,101022.06
2022-12-16T23:42:00.721Z,101026.44
2022-12-16T23:47:20.557Z,101038.44
2022-12-16T23:52:40.408Z,101039.63
2022-12-16T23:58:00.292Z,101038.78
